sensor_id;sensor_type;location;lat;lon;timestamp;P1;durP1;ratioP1;P2;durP2;ratioP2
26512;SDS011;14186;53.822;10.152;2022-12-29T00:00:21;6.13;;;2.88;;
26512;SDS011;14186;53.822;10.152;2022-12-29T00:05:21;5.07;;;2.97;;
26512;SDS011;14186;53.822;10.152;2022-12-29T00:10:22;4.70;;;2.97;;
26512;SDS011;14186;53.822;10.152;2022-12-29T00:15:23;4.97;;;2.95;;
26512;SDS011;14186;53.822;10.152;2022-12-29T00:20:23;4.85;;;3.35;;
26512;SDS011;14186;53.822;10.152;2022-12-29T00:25:24;5.93;;;3.85;;
26512;SDS011;14186;53.822;10.152;2022-12-29T00:30:24;5.78;;;3.50;;
26512;SDS011;14186;53.822;10.152;2022-12-29T00:35:25;4.70;;;3.20;;
26512;SDS011;14186;53.822;10.152;2022-12-29T00:40:28;4.80;;;3.33;;
26512;SDS011;14186;53.822;10.152;2022-12-29T00:45:28;7.13;;;3.33;;
26512;SDS011;14186;53.822;10.152;2022-12-29T00:50:28;4.63;;;3.58;;
26512;SDS011;14186;53.822;10.152;2022-12-29T00:55:30;5.45;;;3.53;;
26512;SDS011;14186;53.822;10.152;2022-12-29T01:00:30;4.78;;;3.60;;
26512;SDS011;14186;53.822;10.152;2022-12-29T01:05:30;6.45;;;3.45;;
26512;SDS011;14186;53.822;10.152;2022-12-29T01:10:31;6.22;;;4.13;;
26512;SDS011;14186;53.822;10.152;2022-12-29T01:15:32;7.93;;;4.13;;
26512;SDS011;14186;53.822;10.152;2022-12-29T01:20:32;5.50;;;4.40;;
26512;SDS011;14186;53.822;10.152;2022-12-29T01:25:33;6.47;;;3.33;;
26512;SDS011;14186;53.822;10.152;2022-12-29T01:30:34;5.38;;;3.65;;
26512;SDS011;14186;53.822;10.152;2022-12-29T01:35:34;4.82;;;3.97;;
26512;SDS011;14186;53.822;10.152;2022-12-29T01:40:43;5.32;;;3.95;;
26512;SDS011;14186;53.822;10.152;2022-12-29T01:45:45;5.35;;;3.92;;
26512;SDS011;14186;53.822;10.152;2022-12-29T01:50:49;5.45;;;3.88;;
26512;SDS011;14186;53.822;10.152;2022-12-29T01:55:52;7.40;;;4.20;;
26512;SDS011;14186;53.822;10.152;2022-12-29T02:00:53;6.63;;;4.60;;
26512;SDS011;14186;53.822;10.152;2022-12-29T02:05:55;6.40;;;4.28;;
26512;SDS011;14186;53.822;10.152;2022-12-29T02:10:57;6.63;;;4.80;;
26512;SDS011;14186;53.822;10.152;2022-12-29T02:16:00;8.80;;;4.82;;
26512;SDS011;14186;53.822;10.152;2022-12-29T02:26:33;7.25;;;5.30;;
26512;SDS011;14186;53.822;10.152;2022-12-29T02:31:38;11.23;;;5.63;;
26512;SDS011;14186;53.822;10.152;2022-12-29T02:36:41;6.70;;;5.13;;
26512;SDS011;14186;53.822;10.152;2022-12-29T02:41:45;8.30;;;4.70;;
26512;SDS011;14186;53.822;10.152;2022-12-29T02:46:51;7.22;;;5.15;;
26512;SDS011;14186;53.822;10.152;2022-12-29T02:51:54;7.20;;;5.65;;
26512;SDS011;14186;53.822;10.152;2022-12-29T02:56:56;6.60;;;5.20;;
26512;SDS011;14186;53.822;10.152;2022-12-29T03:02:03;8.85;;;4.90;;
26512;SDS011;14186;53.822;10.152;2022-12-29T03:07:08;6.00;;;4.68;;
26512;SDS011;14186;53.822;10.152;2022-12-29T03:12:12;7.78;;;4.28;;
26512;SDS011;14186;53.822;10.152;2022-12-29T03:22:17;6.55;;;3.88;;
26512;SDS011;14186;53.822;10.152;2022-12-29T03:27:18;5.88;;;4.85;;
26512;SDS011;14186;53.822;10.152;2022-12-29T03:32:19;9.05;;;3.90;;
26512;SDS011;14186;53.822;10.152;2022-12-29T03:37:22;7.55;;;4.32;;
26512;SDS011;14186;53.822;10.152;2022-12-29T03:42:24;6.47;;;4.32;;
26512;SDS011;14186;53.822;10.152;2022-12-29T03:47:25;5.53;;;4.10;;
26512;SDS011;14186;53.822;10.152;2022-12-29T03:52:27;7.30;;;4.53;;
26512;SDS011;14186;53.822;10.152;2022-12-29T03:57:27;6.15;;;3.33;;
26512;SDS011;14186;53.822;10.152;2022-12-29T04:02:27;6.05;;;4.03;;
26512;SDS011;14186;53.822;10.152;2022-12-29T04:07:29;6.40;;;3.33;;
26512;SDS011;14186;53.822;10.152;2022-12-29T04:12:29;4.80;;;3.15;;
26512;SDS011;14186;53.822;10.152;2022-12-29T04:17:29;4.10;;;3.25;;
26512;SDS011;14186;53.822;10.152;2022-12-29T04:22:31;4.70;;;3.17;;
26512;SDS011;14186;53.822;10.152;2022-12-29T04:27:31;4.85;;;3.25;;
26512;SDS011;14186;53.822;10.152;2022-12-29T04:32:31;4.63;;;2.75;;
26512;SDS011;14186;53.822;10.152;2022-12-29T04:37:33;4.03;;;2.80;;
26512;SDS011;14186;53.822;10.152;2022-12-29T04:42:33;4.57;;;3.00;;
26512;SDS011;14186;53.822;10.152;2022-12-29T04:47:33;4.82;;;2.80;;
26512;SDS011;14186;53.822;10.152;2022-12-29T04:52:34;4.78;;;2.55;;
26512;SDS011;14186;53.822;10.152;2022-12-29T04:57:35;5.50;;;2.72;;
26512;SDS011;14186;53.822;10.152;2022-12-29T05:02:35;3.58;;;2.03;;
26512;SDS011;14186;53.822;10.152;2022-12-29T05:07:37;3.75;;;1.60;;
26512;SDS011;14186;53.822;10.152;2022-12-29T05:12:37;3.13;;;1.75;;
26512;SDS011;14186;53.822;10.152;2022-12-29T05:17:38;3.92;;;1.70;;
26512;SDS011;14186;53.822;10.152;2022-12-29T05:22:39;2.47;;;1.40;;
26512;SDS011;14186;53.822;10.152;2022-12-29T05:27:39;3.03;;;1.55;;
26512;SDS011;14186;53.822;10.152;2022-12-29T05:32:39;2.47;;;1.50;;
26512;SDS011;14186;53.822;10.152;2022-12-29T05:37:41;2.60;;;1.70;;
26512;SDS011;14186;53.822;10.152;2022-12-29T05:42:41;2.92;;;1.80;;
26512;SDS011;14186;53.822;10.152;2022-12-29T05:47:41;3.30;;;2.20;;
26512;SDS011;14186;53.822;10.152;2022-12-29T05:52:43;3.20;;;2.20;;
26512;SDS011;14186;53.822;10.152;2022-12-29T05:57:43;2.70;;;2.10;;
26512;SDS011;14186;53.822;10.152;2022-12-29T06:02:43;2.58;;;1.77;;
26512;SDS011;14186;53.822;10.152;2022-12-29T06:07:45;3.13;;;2.15;;
26512;SDS011;14186;53.822;10.152;2022-12-29T06:12:45;4.80;;;2.00;;
26512;SDS011;14186;53.822;10.152;2022-12-29T06:17:45;3.10;;;2.10;;
26512;SDS011;14186;53.822;10.152;2022-12-29T06:22:47;4.00;;;2.38;;
26512;SDS011;14186;53.822;10.152;2022-12-29T06:27:47;2.97;;;2.15;;
26512;SDS011;14186;53.822;10.152;2022-12-29T06:32:47;2.72;;;2.20;;
26512;SDS011;14186;53.822;10.152;2022-12-29T06:37:49;2.65;;;1.75;;
26512;SDS011;14186;53.822;10.152;2022-12-29T06:42:49;3.17;;;1.88;;
26512;SDS011;14186;53.822;10.152;2022-12-29T06:47:49;3.60;;;1.70;;
26512;SDS011;14186;53.822;10.152;2022-12-29T06:52:51;2.40;;;1.50;;
26512;SDS011;14186;53.822;10.152;2022-12-29T06:57:53;2.08;;;1.42;;
26512;SDS011;14186;53.822;10.152;2022-12-29T07:02:54;2.75;;;1.60;;
26512;SDS011;14186;53.822;10.152;2022-12-29T07:07:55;3.30;;;1.95;;
26512;SDS011;14186;53.822;10.152;2022-12-29T07:12:55;2.95;;;1.90;;
26512;SDS011;14186;53.822;10.152;2022-12-29T07:17:56;2.40;;;1.52;;
26512;SDS011;14186;53.822;10.152;2022-12-29T07:22:57;3.30;;;1.83;;
26512;SDS011;14186;53.822;10.152;2022-12-29T07:27:58;2.63;;;1.50;;
26512;SDS011;14186;53.822;10.152;2022-12-29T07:32:58;3.30;;;1.80;;
26512;SDS011;14186;53.822;10.152;2022-12-29T07:37:59;3.63;;;1.95;;
26512;SDS011;14186;53.822;10.152;2022-12-29T07:42:59;2.90;;;1.65;;
26512;SDS011;14186;53.822;10.152;2022-12-29T07:48:00;5.40;;;1.70;;
26512;SDS011;14186;53.822;10.152;2022-12-29T07:53:01;2.65;;;1.40;;
26512;SDS011;14186;53.822;10.152;2022-12-29T07:58:02;2.72;;;1.90;;
26512;SDS011;14186;53.822;10.152;2022-12-29T08:03:02;2.28;;;1.35;;
26512;SDS011;14186;53.822;10.152;2022-12-29T08:08:04;1.85;;;1.40;;
26512;SDS011;14186;53.822;10.152;2022-12-29T08:13:04;2.95;;;1.70;;
26512;SDS011;14186;53.822;10.152;2022-12-29T08:18:04;3.13;;;1.52;;
26512;SDS011;14186;53.822;10.152;2022-12-29T08:23:06;3.38;;;1.52;;
26512;SDS011;14186;53.822;10.152;2022-12-29T08:28:06;6.05;;;1.38;;
26512;SDS011;14186;53.822;10.152;2022-12-29T08:33:06;3.95;;;2.05;;
26512;SDS011;14186;53.822;10.152;2022-12-29T08:38:08;3.05;;;1.67;;
26512;SDS011;14186;53.822;10.152;2022-12-29T08:43:08;2.67;;;1.27;;
26512;SDS011;14186;53.822;10.152;2022-12-29T08:48:08;6.32;;;1.92;;
26512;SDS011;14186;53.822;10.152;2022-12-29T08:53:10;2.70;;;1.50;;
26512;SDS011;14186;53.822;10.152;2022-12-29T08:58:10;5.05;;;1.08;;
26512;SDS011;14186;53.822;10.152;2022-12-29T09:03:10;3.80;;;0.90;;
26512;SDS011;14186;53.822;10.152;2022-12-29T09:08:12;3.97;;;0.70;;
26512;SDS011;14186;53.822;10.152;2022-12-29T09:13:12;3.95;;;0.90;;
26512;SDS011;14186;53.822;10.152;2022-12-29T09:18:13;1.15;;;0.73;;
26512;SDS011;14186;53.822;10.152;2022-12-29T09:23:14;2.03;;;0.90;;
26512;SDS011;14186;53.822;10.152;2022-12-29T09:28:14;3.35;;;0.80;;
26512;SDS011;14186;53.822;10.152;2022-12-29T09:33:14;2.90;;;0.70;;
26512;SDS011;14186;53.822;10.152;2022-12-29T09:38:16;1.88;;;0.77;;
26512;SDS011;14186;53.822;10.152;2022-12-29T09:43:23;4.07;;;1.02;;
26512;SDS011;14186;53.822;10.152;2022-12-29T09:48:27;3.80;;;0.82;;
26512;SDS011;14186;53.822;10.152;2022-12-29T09:53:31;3.92;;;0.90;;
26512;SDS011;14186;53.822;10.152;2022-12-29T09:58:36;4.18;;;1.20;;
26512;SDS011;14186;53.822;10.152;2022-12-29T10:03:41;4.28;;;0.68;;
26512;SDS011;14186;53.822;10.152;2022-12-29T10:08:44;2.30;;;0.55;;
26512;SDS011;14186;53.822;10.152;2022-12-29T10:13:52;1.67;;;0.50;;
26512;SDS011;14186;53.822;10.152;2022-12-29T10:19:01;7.15;;;1.00;;
26512;SDS011;14186;53.822;10.152;2022-12-29T10:24:04;4.68;;;0.88;;
26512;SDS011;14186;53.822;10.152;2022-12-29T10:29:08;7.15;;;1.40;;
26512;SDS011;14186;53.822;10.152;2022-12-29T10:34:14;5.65;;;0.82;;
26512;SDS011;14186;53.822;10.152;2022-12-29T10:39:19;4.85;;;0.85;;
26512;SDS011;14186;53.822;10.152;2022-12-29T10:44:21;4.75;;;0.90;;
26512;SDS011;14186;53.822;10.152;2022-12-29T10:49:21;6.28;;;1.30;;
26512;SDS011;14186;53.822;10.152;2022-12-29T10:54:23;6.88;;;1.27;;
26512;SDS011;14186;53.822;10.152;2022-12-29T10:59:26;7.13;;;1.10;;
26512;SDS011;14186;53.822;10.152;2022-12-29T11:04:31;5.32;;;1.40;;
26512;SDS011;14186;53.822;10.152;2022-12-29T11:09:35;5.72;;;1.15;;
26512;SDS011;14186;53.822;10.152;2022-12-29T11:14:36;5.63;;;1.00;;
26512;SDS011;14186;53.822;10.152;2022-12-29T11:19:37;4.93;;;1.70;;
26512;SDS011;14186;53.822;10.152;2022-12-29T11:24:38;6.22;;;1.20;;
26512;SDS011;14186;53.822;10.152;2022-12-29T11:29:43;6.75;;;1.00;;
26512;SDS011;14186;53.822;10.152;2022-12-29T11:34:44;5.95;;;1.58;;
26512;SDS011;14186;53.822;10.152;2022-12-29T11:39:48;8.52;;;1.23;;
26512;SDS011;14186;53.822;10.152;2022-12-29T11:44:50;4.00;;;0.95;;
26512;SDS011;14186;53.822;10.152;2022-12-29T11:49:52;6.10;;;1.08;;
26512;SDS011;14186;53.822;10.152;2022-12-29T11:54:54;8.38;;;1.10;;
26512;SDS011;14186;53.822;10.152;2022-12-29T11:59:55;5.70;;;0.77;;
26512;SDS011;14186;53.822;10.152;2022-12-29T12:04:56;9.25;;;1.20;;
26512;SDS011;14186;53.822;10.152;2022-12-29T12:10:01;5.18;;;0.90;;
26512;SDS011;14186;53.822;10.152;2022-12-29T12:15:03;5.50;;;0.70;;
26512;SDS011;14186;53.822;10.152;2022-12-29T12:20:04;5.82;;;1.27;;
26512;SDS011;14186;53.822;10.152;2022-12-29T12:25:12;6.22;;;0.63;;
26512;SDS011;14186;53.822;10.152;2022-12-29T12:30:15;3.83;;;0.50;;
26512;SDS011;14186;53.822;10.152;2022-12-29T12:35:20;4.00;;;0.77;;
26512;SDS011;14186;53.822;10.152;2022-12-29T12:40:29;4.13;;;0.70;;
26512;SDS011;14186;53.822;10.152;2022-12-29T12:45:34;5.80;;;1.10;;
26512;SDS011;14186;53.822;10.152;2022-12-29T12:50:39;5.90;;;0.70;;
26512;SDS011;14186;53.822;10.152;2022-12-29T12:55:52;3.63;;;0.60;;
26512;SDS011;14186;53.822;10.152;2022-12-29T13:01:00;7.72;;;1.67;;
26512;SDS011;14186;53.822;10.152;2022-12-29T13:06:12;5.43;;;0.70;;
26512;SDS011;14186;53.822;10.152;2022-12-29T13:11:19;4.18;;;1.05;;
26512;SDS011;14186;53.822;10.152;2022-12-29T13:16:22;6.28;;;1.98;;
26512;SDS011;14186;53.822;10.152;2022-12-29T13:21:31;5.65;;;0.80;;
26512;SDS011;14186;53.822;10.152;2022-12-29T13:26:35;5.82;;;0.60;;
26512;SDS011;14186;53.822;10.152;2022-12-29T13:31:41;6.78;;;0.93;;
26512;SDS011;14186;53.822;10.152;2022-12-29T13:36:43;4.93;;;0.90;;
26512;SDS011;14186;53.822;10.152;2022-12-29T13:41:47;8.35;;;0.98;;
26512;SDS011;14186;53.822;10.152;2022-12-29T13:46:48;4.75;;;0.70;;
26512;SDS011;14186;53.822;10.152;2022-12-29T13:51:49;3.75;;;0.82;;
26512;SDS011;14186;53.822;10.152;2022-12-29T13:56:52;4.10;;;0.75;;
26512;SDS011;14186;53.822;10.152;2022-12-29T14:01:56;2.60;;;0.75;;
26512;SDS011;14186;53.822;10.152;2022-12-29T14:06:59;2.70;;;0.52;;
26512;SDS011;14186;53.822;10.152;2022-12-29T14:12:02;5.68;;;0.90;;
26512;SDS011;14186;53.822;10.152;2022-12-29T14:17:19;6.88;;;1.27;;
26512;SDS011;14186;53.822;10.152;2022-12-29T14:22:22;3.58;;;0.75;;
26512;SDS011;14186;53.822;10.152;2022-12-29T14:32:44;6.30;;;1.20;;
26512;SDS011;14186;53.822;10.152;2022-12-29T14:38:06;5.43;;;0.70;;
26512;SDS011;14186;53.822;10.152;2022-12-29T14:43:11;5.45;;;0.70;;
26512;SDS011;14186;53.822;10.152;2022-12-29T14:48:25;7.78;;;1.10;;
26512;SDS011;14186;53.822;10.152;2022-12-29T14:53:42;7.30;;;0.77;;
26512;SDS011;14186;53.822;10.152;2022-12-29T14:58:44;4.37;;;0.70;;
26512;SDS011;14186;53.822;10.152;2022-12-29T15:03:48;4.85;;;1.02;;
26512;SDS011;14186;53.822;10.152;2022-12-29T15:08:49;6.93;;;1.00;;
26512;SDS011;14186;53.822;10.152;2022-12-29T15:13:50;3.60;;;1.65;;
26512;SDS011;14186;53.822;10.152;2022-12-29T15:18:52;6.00;;;1.05;;
26512;SDS011;14186;53.822;10.152;2022-12-29T15:23:52;6.05;;;1.30;;
26512;SDS011;14186;53.822;10.152;2022-12-29T15:28:52;6.88;;;2.08;;
26512;SDS011;14186;53.822;10.152;2022-12-29T15:33:54;4.43;;;1.38;;
26512;SDS011;14186;53.822;10.152;2022-12-29T15:39:01;3.15;;;0.70;;
26512;SDS011;14186;53.822;10.152;2022-12-29T15:44:17;9.73;;;0.93;;
26512;SDS011;14186;53.822;10.152;2022-12-29T15:49:22;6.80;;;2.65;;
26512;SDS011;14186;53.822;10.152;2022-12-29T15:54:22;5.65;;;1.60;;
26512;SDS011;14186;53.822;10.152;2022-12-29T15:59:24;5.82;;;1.02;;
26512;SDS011;14186;53.822;10.152;2022-12-29T16:04:27;7.90;;;1.70;;
26512;SDS011;14186;53.822;10.152;2022-12-29T16:09:31;6.43;;;0.95;;
26512;SDS011;14186;53.822;10.152;2022-12-29T16:14:32;7.82;;;1.10;;
26512;SDS011;14186;53.822;10.152;2022-12-29T16:19:34;9.38;;;1.92;;
26512;SDS011;14186;53.822;10.152;2022-12-29T16:24:36;7.22;;;1.45;;
26512;SDS011;14186;53.822;10.152;2022-12-29T16:29:37;12.95;;;1.92;;
26512;SDS011;14186;53.822;10.152;2022-12-29T16:34:43;6.60;;;1.88;;
26512;SDS011;14186;53.822;10.152;2022-12-29T16:39:43;8.55;;;1.38;;
26512;SDS011;14186;53.822;10.152;2022-12-29T16:44:43;10.95;;;1.67;;
26512;SDS011;14186;53.822;10.152;2022-12-29T16:49:46;15.52;;;4.15;;
26512;SDS011;14186;53.822;10.152;2022-12-29T16:54:48;9.80;;;3.00;;
26512;SDS011;14186;53.822;10.152;2022-12-29T16:59:50;12.02;;;1.50;;
26512;SDS011;14186;53.822;10.152;2022-12-29T17:04:52;8.18;;;1.95;;
26512;SDS011;14186;53.822;10.152;2022-12-29T17:09:53;7.53;;;1.42;;
26512;SDS011;14186;53.822;10.152;2022-12-29T17:14:53;6.53;;;1.95;;
26512;SDS011;14186;53.822;10.152;2022-12-29T17:19:56;10.75;;;2.28;;
26512;SDS011;14186;53.822;10.152;2022-12-29T17:24:57;10.65;;;1.98;;
26512;SDS011;14186;53.822;10.152;2022-12-29T17:29:59;8.25;;;2.00;;
26512;SDS011;14186;53.822;10.152;2022-12-29T17:35:02;7.72;;;2.45;;
26512;SDS011;14186;53.822;10.152;2022-12-29T17:40:04;10.25;;;2.50;;
26512;SDS011;14186;53.822;10.152;2022-12-29T17:45:04;11.82;;;2.55;;
26512;SDS011;14186;53.822;10.152;2022-12-29T17:50:08;7.20;;;2.95;;
26512;SDS011;14186;53.822;10.152;2022-12-29T17:55:12;8.85;;;3.42;;
26512;SDS011;14186;53.822;10.152;2022-12-29T18:00:15;26.38;;;11.40;;
26512;SDS011;14186;53.822;10.152;2022-12-29T18:05:18;13.23;;;5.40;;
26512;SDS011;14186;53.822;10.152;2022-12-29T18:10:19;13.15;;;3.35;;
26512;SDS011;14186;53.822;10.152;2022-12-29T18:15:20;11.73;;;3.22;;
26512;SDS011;14186;53.822;10.152;2022-12-29T18:20:22;9.38;;;2.10;;
26512;SDS011;14186;53.822;10.152;2022-12-29T18:25:25;6.50;;;1.70;;
26512;SDS011;14186;53.822;10.152;2022-12-29T18:30:25;8.77;;;1.80;;
26512;SDS011;14186;53.822;10.152;2022-12-29T18:35:28;9.55;;;2.60;;
26512;SDS011;14186;53.822;10.152;2022-12-29T18:40:29;13.63;;;3.15;;
26512;SDS011;14186;53.822;10.152;2022-12-29T18:45:30;8.32;;;2.65;;
26512;SDS011;14186;53.822;10.152;2022-12-29T18:50:31;11.40;;;3.40;;
26512;SDS011;14186;53.822;10.152;2022-12-29T18:55:32;10.70;;;3.13;;
26512;SDS011;14186;53.822;10.152;2022-12-29T19:00:32;18.08;;;4.00;;
26512;SDS011;14186;53.822;10.152;2022-12-29T19:05:35;11.25;;;4.80;;
26512;SDS011;14186;53.822;10.152;2022-12-29T19:10:36;9.90;;;2.92;;
26512;SDS011;14186;53.822;10.152;2022-12-29T19:15:36;11.02;;;2.67;;
26512;SDS011;14186;53.822;10.152;2022-12-29T19:20:39;17.35;;;3.10;;
26512;SDS011;14186;53.822;10.152;2022-12-29T19:25:40;11.55;;;3.08;;
26512;SDS011;14186;53.822;10.152;2022-12-29T19:30:40;13.13;;;3.40;;
26512;SDS011;14186;53.822;10.152;2022-12-29T19:35:41;9.18;;;3.25;;
26512;SDS011;14186;53.822;10.152;2022-12-29T19:40:42;9.32;;;2.63;;
26512;SDS011;14186;53.822;10.152;2022-12-29T19:45:44;7.93;;;1.80;;
26512;SDS011;14186;53.822;10.152;2022-12-29T19:50:45;9.02;;;1.70;;
26512;SDS011;14186;53.822;10.152;2022-12-29T19:55:46;8.55;;;1.73;;
26512;SDS011;14186;53.822;10.152;2022-12-29T20:00:46;10.55;;;2.97;;
26512;SDS011;14186;53.822;10.152;2022-12-29T20:05:48;5.63;;;2.22;;
26512;SDS011;14186;53.822;10.152;2022-12-29T20:10:55;1.88;;;0.55;;
26512;SDS011;14186;53.822;10.152;2022-12-29T20:15:59;1.20;;;0.20;;
26512;SDS011;14186;53.822;10.152;2022-12-29T20:21:01;3.00;;;1.20;;
26512;SDS011;14186;53.822;10.152;2022-12-29T20:26:02;1.10;;;0.55;;
26512;SDS011;14186;53.822;10.152;2022-12-29T20:31:03;1.55;;;0.60;;
26512;SDS011;14186;53.822;10.152;2022-12-29T20:36:07;5.00;;;1.90;;
26512;SDS011;14186;53.822;10.152;2022-12-29T20:41:08;4.40;;;1.50;;
26512;SDS011;14186;53.822;10.152;2022-12-29T20:46:08;3.70;;;1.25;;
26512;SDS011;14186;53.822;10.152;2022-12-29T20:51:10;4.95;;;1.55;;
26512;SDS011;14186;53.822;10.152;2022-12-29T20:56:12;5.43;;;1.73;;
26512;SDS011;14186;53.822;10.152;2022-12-29T21:01:13;8.80;;;1.88;;
26512;SDS011;14186;53.822;10.152;2022-12-29T21:06:15;3.33;;;2.05;;
26512;SDS011;14186;53.822;10.152;2022-12-29T21:11:15;7.22;;;2.03;;
26512;SDS011;14186;53.822;10.152;2022-12-29T21:16:16;7.03;;;1.48;;
26512;SDS011;14186;53.822;10.152;2022-12-29T21:21:18;11.23;;;2.22;;
26512;SDS011;14186;53.822;10.152;2022-12-29T21:26:19;7.35;;;1.70;;
26512;SDS011;14186;53.822;10.152;2022-12-29T21:31:23;6.45;;;1.55;;
26512;SDS011;14186;53.822;10.152;2022-12-29T21:36:25;10.85;;;1.70;;
26512;SDS011;14186;53.822;10.152;2022-12-29T21:41:26;8.55;;;1.90;;
26512;SDS011;14186;53.822;10.152;2022-12-29T21:46:26;7.50;;;1.90;;
26512;SDS011;14186;53.822;10.152;2022-12-29T21:51:28;6.90;;;1.75;;
26512;SDS011;14186;53.822;10.152;2022-12-29T21:56:28;10.73;;;1.50;;
26512;SDS011;14186;53.822;10.152;2022-12-29T22:01:29;10.82;;;2.10;;
26512;SDS011;14186;53.822;10.152;2022-12-29T22:06:31;5.72;;;1.45;;
26512;SDS011;14186;53.822;10.152;2022-12-29T22:11:31;11.00;;;1.52;;
26512;SDS011;14186;53.822;10.152;2022-12-29T22:16:31;7.53;;;0.98;;
26512;SDS011;14186;53.822;10.152;2022-12-29T22:21:33;12.25;;;1.30;;
26512;SDS011;14186;53.822;10.152;2022-12-29T22:26:33;6.32;;;0.80;;
26512;SDS011;14186;53.822;10.152;2022-12-29T22:31:33;7.90;;;1.08;;
26512;SDS011;14186;53.822;10.152;2022-12-29T22:36:35;5.82;;;1.10;;
26512;SDS011;14186;53.822;10.152;2022-12-29T22:41:35;6.93;;;0.82;;
26512;SDS011;14186;53.822;10.152;2022-12-29T22:46:35;6.10;;;0.85;;
26512;SDS011;14186;53.822;10.152;2022-12-29T22:51:37;6.70;;;0.90;;
26512;SDS011;14186;53.822;10.152;2022-12-29T22:56:37;4.85;;;1.02;;
26512;SDS011;14186;53.822;10.152;2022-12-29T23:01:38;3.53;;;0.90;;
26512;SDS011;14186;53.822;10.152;2022-12-29T23:06:40;8.57;;;1.27;;
26512;SDS011;14186;53.822;10.152;2022-12-29T23:11:40;5.32;;;1.15;;
26512;SDS011;14186;53.822;10.152;2022-12-29T23:16:40;5.47;;;1.23;;
26512;SDS011;14186;53.822;10.152;2022-12-29T23:21:41;8.82;;;1.40;;
26512;SDS011;14186;53.822;10.152;2022-12-29T23:26:42;7.22;;;1.42;;
26512;SDS011;14186;53.822;10.152;2022-12-29T23:31:43;11.07;;;1.98;;
26512;SDS011;14186;53.822;10.152;2022-12-29T23:36:44;8.20;;;1.75;;
26512;SDS011;14186;53.822;10.152;2022-12-29T23:41:45;7.38;;;1.52;;
26512;SDS011;14186;53.822;10.152;2022-12-29T23:46:45;10.55;;;2.10;;
26512;SDS011;14186;53.822;10.152;2022-12-29T23:51:46;11.15;;;1.40;;
26512;SDS011;14186;53.822;10.152;2022-12-29T23:56:46;7.82;;;1.67;;
